Time;durP1;ratioP1;P1;durP2;ratioP2;P2;SDS_P1;SDS_P2;PMS_P1;PMS_P2;Temp;Humidity;BMP_temperature;BMP_pressure;BME280_temperature;BME280_humidity;BME280_pressure;Samples;Min_cycle;Max_cycle;Signal;HPM_P1;HPM_P2
2022/07/03 00:00:28;;;;;;;0.30;0.30;;;16.60;99.90;;;;;;5027293;28;20354;-72
2022/07/03 00:02:54;;;;;;;0.22;0.22;;;16.60;99.90;;;;;;5014661;28;20042;-75
2022/07/03 00:05:21;;;;;;;;;;;16.60;99.90;;;;;;5033407;28;20056;-74
2022/07/03 00:07:47;;;;;;;0.35;0.35;;;16.50;99.90;;;;;;5026140;28;19916;-75
2022/07/03 00:10:12;;;;;;;;;;;16.40;99.90;;;;;;5014728;28;20259;-73
2022/07/03 00:12:38;;;;;;;0.30;0.30;;;16.30;99.90;;;;;;5028846;28;19916;-75
2022/07/03 00:15:04;;;;;;;;;;;16.30;99.90;;;;;;5033149;28;20033;-73
2022/07/03 00:17:30;;;;;;;0.30;0.30;;;16.20;99.90;;;;;;5024746;28;20000;-74
2022/07/03 00:19:55;;;;;;;;;;;16.10;99.90;;;;;;5013770;28;20124;-73
2022/07/03 00:22:24;;;;;;;0.30;0.30;;;16.10;99.90;;;;;;5014103;28;19917;-74
2022/07/03 00:25:12;;;;;;;0.30;0.30;;;16.10;99.90;;;;;;5016884;28;20388;-73
2022/07/03 00:27:39;;;;;;;0.30;0.30;;;16.00;99.90;;;;;;5025193;28;20125;-74
2022/07/03 00:30:07;;;;;;;0.30;0.30;;;15.90;99.90;;;;;;5019138;28;20076;-73
2022/07/03 00:32:37;;;;;;;0.30;0.30;;;15.80;99.90;;;;;;5022529;28;20152;-73
2022/07/03 00:35:03;;;;;;;0.25;0.25;;;15.70;99.90;;;;;;5026317;28;20057;-72
2022/07/03 00:37:29;;;;;;;0.30;0.30;;;15.70;99.90;;;;;;5020772;28;20048;-75
2022/07/03 00:39:57;;;;;;;0.25;0.25;;;15.60;99.90;;;;;;5029552;28;20049;-74
2022/07/03 00:42:23;;;;;;;0.30;0.30;;;15.50;99.90;;;;;;5031548;28;20049;-74
2022/07/03 00:44:50;;;;;;;;;;;15.40;99.90;;;;;;5031674;28;20095;-72
2022/07/03 00:47:19;;;;;;;0.30;0.30;;;15.30;99.90;;;;;;5031727;28;20321;-74
2022/07/03 00:49:48;;;;;;;0.30;0.30;;;15.20;99.90;;;;;;5026475;28;20042;-73
2022/07/03 00:52:15;;;;;;;0.20;0.20;;;15.10;99.90;;;;;;5028592;28;20084;-74
2022/07/03 00:54:52;;;;;;;0.25;0.25;;;15.10;99.90;;;;;;5031169;28;20387;-75
2022/07/03 00:57:19;;;;;;;0.30;0.30;;;15.00;99.90;;;;;;5014096;28;20094;-75
2022/07/03 00:59:45;;;;;;;0.32;0.32;;;14.90;99.90;;;;;;5015106;28;20056;-73
2022/07/03 01:02:19;;;;;;;;;;;14.90;99.90;;;;;;5025372;28;20045;-73
2022/07/03 01:04:47;;;;;;;0.30;0.30;;;14.80;99.90;;;;;;5031652;28;19925;-73
2022/07/03 01:08:02;;;;;;;0.22;0.22;;;14.80;99.90;;;;;;5032119;28;20128;-77
2022/07/03 01:10:52;;;;;;;0.20;0.20;;;14.70;99.90;;;;;;4993523;28;20082;-74
2022/07/03 01:13:36;;;;;;;0.30;0.30;;;14.70;99.90;;;;;;5020739;28;20037;-77
2022/07/03 01:16:17;;;;;;;0.30;0.30;;;14.60;99.90;;;;;;5022860;28;20120;-72
2022/07/03 01:18:53;;;;;;;0.30;0.30;;;14.60;99.90;;;;;;5025699;28;20056;-74
2022/07/03 01:21:19;;;;;;;0.30;0.30;;;14.60;99.90;;;;;;5025330;28;20056;-73
2022/07/03 01:24:12;;;;;;;0.30;0.30;;;14.50;99.90;;;;;;5018418;28;20042;-73
2022/07/03 01:26:41;;;;;;;0.25;0.25;;;14.50;99.90;;;;;;5032341;28;20049;-74
2022/07/03 01:29:15;;;;;;;0.30;0.30;;;14.40;99.90;;;;;;5031641;28;20120;-74
2022/07/03 01:31:42;;;;;;;0.28;0.28;;;14.40;99.90;;;;;;5032248;28;20051;-76
2022/07/03 01:34:16;;;;;;;0.30;0.30;;;14.30;99.90;;;;;;4998514;28;20049;-72
2022/07/03 01:36:46;;;;;;;0.20;0.20;;;14.30;99.90;;;;;;5027590;28;20121;-75
2022/07/03 01:39:16;;;;;;;0.30;0.30;;;14.30;99.90;;;;;;5023031;28;20103;-76
2022/07/03 01:41:47;;;;;;;0.20;0.20;;;14.20;99.90;;;;;;5029322;28;20045;-74
2022/07/03 01:44:14;;;;;;;1.65;0.55;;;14.20;99.90;;;;;;5021839;28;20084;-75
2022/07/03 01:46:45;;;;;;;0.25;0.25;;;14.10;99.90;;;;;;5008460;28;20550;-74
2022/07/03 01:49:14;;;;;;;0.30;0.30;;;14.10;99.90;;;;;;5025180;28;20049;-75
2022/07/03 01:51:41;;;;;;;0.30;0.30;;;14.10;99.90;;;;;;5021751;28;20048;-73
2022/07/03 01:54:12;;;;;;;0.30;0.30;;;14.10;99.90;;;;;;5010436;28;20107;-72
2022/07/03 01:56:38;;;;;;;0.30;0.30;;;14.00;99.90;;;;;;5030023;28;20063;-74
2022/07/03 01:59:03;;;;;;;0.20;0.20;;;14.00;99.90;;;;;;5022897;28;20379;-75
2022/07/03 02:01:36;;;;;;;;;;;13.90;99.90;;;;;;5017155;28;20483;-74
2022/07/03 02:04:27;;;;;;;0.40;0.40;;;13.90;99.90;;;;;;5021283;28;19961;-75
2022/07/03 02:07:17;;;;;;;0.30;0.30;;;13.90;99.90;;;;;;5029591;28;20124;-76
2022/07/03 02:10:02;;;;;;;0.30;0.30;;;13.80;99.90;;;;;;5029745;28;20033;-75
2022/07/03 02:12:59;;;;;;;0.40;0.40;;;13.90;99.90;;;;;;5030110;28;20091;-74
2022/07/03 02:15:35;;;;;;;0.30;0.30;;;13.80;99.90;;;;;;5018421;28;20037;-76
2022/07/03 02:18:24;;;;;;;0.22;0.22;;;13.70;99.90;;;;;;5016794;28;20062;-72
2022/07/03 02:21:14;;;;;;;0.20;0.20;;;13.70;99.90;;;;;;5024125;28;20056;-73
2022/07/03 02:24:02;;;;;;;0.25;0.25;;;13.70;99.90;;;;;;5029958;28;20041;-75
2022/07/03 02:26:33;;;;;;;0.22;0.22;;;13.80;99.90;;;;;;5031066;28;20041;-75
2022/07/03 02:29:03;;;;;;;0.45;0.45;;;13.60;99.90;;;;;;5025943;28;20051;-74
2022/07/03 02:31:43;;;;;;;0.30;0.30;;;13.60;99.90;;;;;;5027717;28;20045;-74
2022/07/03 02:34:16;;;;;;;0.60;0.60;;;13.70;99.90;;;;;;5025402;28;20037;-75
2022/07/03 02:36:47;;;;;;;0.40;0.40;;;13.90;99.90;;;;;;5030421;28;20033;-75
2022/07/03 02:39:27;;;;;;;0.30;0.30;;;14.10;99.90;;;;;;5016844;28;20046;-75
2022/07/03 02:41:58;;;;;;;0.32;0.32;;;14.20;99.90;;;;;;5031288;28;20596;-72
2022/07/03 02:44:46;;;;;;;0.40;0.40;;;14.20;99.90;;;;;;5011871;28;20042;-75
2022/07/03 02:47:32;;;;;;;0.40;0.40;;;14.20;99.90;;;;;;5021351;28;20049;-74
2022/07/03 02:50:05;;;;;;;0.45;0.45;;;14.20;99.90;;;;;;5030260;28;20497;-75
2022/07/03 02:52:54;;;;;;;0.55;0.55;;;14.10;99.90;;;;;;5024884;28;20053;-76
2022/07/03 02:55:43;;;;;;;0.57;0.57;;;14.20;99.90;;;;;;5024339;28;20057;-75
2022/07/03 02:58:17;;;;;;;1.23;1.20;;;14.20;99.90;;;;;;5024496;28;20049;-74
2022/07/03 03:01:07;;;;;;;0.57;0.43;;;14.20;99.90;;;;;;5013744;28;20128;-74
2022/07/03 03:03:33;;;;;;;0.30;0.30;;;14.10;99.90;;;;;;5018959;28;20042;-75
2022/07/03 03:06:00;;;;;;;;;;;14.10;99.90;;;;;;5013400;28;20434;-75
2022/07/03 03:08:34;;;;;;;0.40;0.40;;;14.00;99.90;;;;;;5031389;28;20359;-74
2022/07/03 03:11:06;;;;;;;0.30;0.30;;;14.00;99.90;;;;;;5027385;28;20042;-74
2022/07/03 03:13:32;;;;;;;0.38;0.38;;;13.90;99.90;;;;;;5028977;28;20050;-73
2022/07/03 03:16:07;;;;;;;0.40;0.40;;;13.90;99.90;;;;;;5022622;28;20049;-73
2022/07/03 03:18:38;;;;;;;0.70;0.70;;;13.80;99.90;;;;;;5030938;28;20148;-76
2022/07/03 03:21:08;;;;;;;0.50;0.50;;;13.80;99.90;;;;;;5027142;28;20049;-74
2022/07/03 03:23:52;;;;;;;0.30;0.30;;;13.70;99.90;;;;;;5031637;28;20389;-74
2022/07/03 03:26:19;;;;;;;0.40;0.40;;;13.70;99.90;;;;;;5029279;28;20048;-75
2022/07/03 03:28:46;;;;;;;0.40;0.40;;;13.70;99.90;;;;;;5035524;28;20041;-76
2022/07/03 03:31:12;;;;;;;0.40;0.40;;;13.60;99.90;;;;;;5027003;28;20038;-75
2022/07/03 03:33:43;;;;;;;0.40;0.40;;;13.70;99.90;;;;;;5034700;28;20113;-74
2022/07/03 03:36:10;;;;;;;0.40;0.40;;;13.70;99.90;;;;;;5033668;28;20437;-76
2022/07/03 03:38:37;;;;;;;0.28;0.28;;;13.70;99.90;;;;;;5020648;28;20084;-75
2022/07/03 03:41:03;;;;;;;0.40;0.40;;;13.70;99.90;;;;;;5028745;28;20057;-75
2022/07/03 03:43:30;;;;;;;;;;;13.70;99.90;;;;;;5028644;28;20037;-75
2022/07/03 03:45:56;;;;;;;0.30;0.30;;;13.70;99.90;;;;;;5033118;28;19921;-73
2022/07/03 03:48:21;;;;;;;;;;;13.80;99.90;;;;;;5019520;28;20034;-76
2022/07/03 03:50:47;;;;;;;0.40;0.40;;;13.70;99.90;;;;;;5008931;28;19971;-75
2022/07/03 03:53:14;;;;;;;;;;;13.80;99.90;;;;;;5019495;28;20054;-75
2022/07/03 03:56:14;;;;;;;0.43;0.43;;;13.80;99.90;;;;;;5033488;28;19929;-75
2022/07/03 03:58:41;;;;;;;0.38;0.38;;;13.80;99.90;;;;;;4983364;28;20194;-76
2022/07/03 04:01:09;;;;;;;0.35;0.35;;;13.80;99.90;;;;;;5025803;28;20187;-74
2022/07/03 04:03:36;;;;;;;0.40;0.40;;;13.80;99.90;;;;;;5003370;28;20054;-74
2022/07/03 04:06:03;;;;;;;0.30;0.30;;;13.70;99.90;;;;;;5020704;28;20041;-74
2022/07/03 04:08:29;;;;;;;0.28;0.28;;;13.80;99.90;;;;;;5027840;28;20388;-74
2022/07/03 04:10:55;;;;;;;0.40;0.40;;;13.70;99.90;;;;;;5032520;28;20120;-73
2022/07/03 04:13:21;;;;;;;;;;;13.60;99.90;;;;;;5024353;28;20501;-74
2022/07/03 04:15:49;;;;;;;0.30;0.30;;;13.70;99.90;;;;;;5017429;28;19918;-75
2022/07/03 04:18:15;;;;;;;0.20;0.20;;;13.70;99.90;;;;;;5031854;28;20120;-76
2022/07/03 04:20:41;;;;;;;0.35;0.35;;;13.70;99.90;;;;;;5032903;28;20149;-73
2022/07/03 04:23:07;;;;;;;0.30;0.30;;;13.70;99.90;;;;;;5030859;28;20042;-75
2022/07/03 04:25:32;;;;;;;0.30;0.30;;;13.80;99.90;;;;;;5014479;28;20222;-73
2022/07/03 04:27:58;;;;;;;;;;;13.80;99.90;;;;;;5033101;28;20050;-75
2022/07/03 04:30:24;;;;;;;0.30;0.30;;;13.90;99.90;;;;;;5034954;28;19917;-76
2022/07/03 04:32:50;;;;;;;;;;;14.00;99.90;;;;;;5027946;28;20113;-74
2022/07/03 04:35:16;;;;;;;0.30;0.30;;;14.10;99.90;;;;;;5027660;28;19971;-74
2022/07/03 04:37:42;;;;;;;;;;;14.20;99.90;;;;;;5006234;28;20034;-74
2022/07/03 04:40:08;;;;;;;0.28;0.28;;;14.40;99.90;;;;;;5024175;28;19924;-73
2022/07/03 04:42:34;;;;;;;0.30;0.30;;;14.50;99.90;;;;;;5034721;28;20033;-77
2022/07/03 04:45:01;;;;;;;0.30;0.30;;;14.70;99.90;;;;;;5032292;28;20050;-75
2022/07/03 04:47:27;;;;;;;0.28;0.28;;;14.80;99.90;;;;;;5031489;28;20037;-76
2022/07/03 04:49:52;;;;;;;0.10;0.10;;;15.00;99.90;;;;;;5032262;28;20047;-76
2022/07/03 04:52:18;;;;;;;;;;;15.10;99.90;;;;;;5022906;28;20095;-73
2022/07/03 04:54:44;;;;;;;0.30;0.30;;;15.20;99.90;;;;;;5010408;28;19925;-73
2022/07/03 04:57:09;;;;;;;;;;;15.30;99.90;;;;;;5032846;28;20041;-73
2022/07/03 04:59:35;;;;;;;0.30;0.30;;;15.40;99.90;;;;;;5024710;28;20385;-74
2022/07/03 05:02:01;;;;;;;;;;;15.50;99.90;;;;;;5033272;28;20087;-75
2022/07/03 05:04:27;;;;;;;0.38;0.38;;;15.60;99.90;;;;;;5030480;28;19963;-73
2022/07/03 05:06:52;;;;;;;;;;;15.70;99.90;;;;;;5036384;28;20045;-76
2022/07/03 05:09:18;;;;;;;0.30;0.30;;;15.80;99.90;;;;;;5023019;28;19921;-75
2022/07/03 05:11:44;;;;;;;0.20;0.20;;;15.90;99.90;;;;;;5002204;28;20044;-75
2022/07/03 05:14:10;;;;;;;0.30;0.30;;;16.10;99.90;;;;;;5024849;28;20045;-76
2022/07/03 05:16:36;;;;;;;;;;;16.20;99.90;;;;;;5028076;28;20029;-76
2022/07/03 05:19:01;;;;;;;0.30;0.30;;;16.30;99.90;;;;;;5032700;28;19921;-74
2022/07/03 05:21:27;;;;;;;;;;;16.50;99.90;;;;;;5015958;28;20053;-73
2022/07/03 05:23:53;;;;;;;0.40;0.40;;;16.70;99.90;;;;;;5029351;28;19929;-75
2022/07/03 05:26:19;;;;;;;;;;;16.90;99.90;;;;;;5014662;28;20380;-73
2022/07/03 05:28:44;;;;;;;0.30;0.30;;;17.10;99.90;;;;;;5026938;28;19972;-74
2022/07/03 05:31:10;;;;;;;;;;;17.30;99.90;;;;;;5025565;28;20039;-76
2022/07/03 05:33:37;;;;;;;0.30;0.30;;;17.40;99.90;;;;;;5029327;28;19921;-74
2022/07/03 05:36:03;;;;;;;0.30;0.30;;;17.50;99.90;;;;;;5024746;28;20502;-74
2022/07/03 05:41:14;;;;;;;0.22;0.22;;;17.80;99.90;;;;;;5030502;28;20196;-76
2022/07/03 05:43:40;;;;;;;;;;;18.00;99.90;;;;;;5026112;28;20041;-74
2022/07/03 05:46:05;;;;;;;1.20;0.50;;;18.20;99.90;;;;;;5030678;28;19921;-75
2022/07/03 05:48:31;;;;;;;;;;;18.40;99.90;;;;;;5001750;28;20042;-75
2022/07/03 05:50:57;;;;;;;1.27;1.08;;;18.70;99.90;;;;;;5027302;28;19917;-75
2022/07/03 05:53:22;;;;;;;;;;;19.00;99.90;;;;;;5030793;28;20062;-76
2022/07/03 05:55:49;;;;;;;0.40;0.40;;;19.10;99.90;;;;;;5026544;28;19917;-72
2022/07/03 05:58:15;;;;;;;0.20;0.20;;;19.10;99.90;;;;;;5018504;28;20033;-72
2022/07/03 06:00:41;;;;;;;;;;;19.10;99.90;;;;;;5025173;28;20091;-73
2022/07/03 06:03:07;;;;;;;0.32;0.32;;;19.00;99.90;;;;;;5022035;28;19958;-74
2022/07/03 06:05:33;;;;;;;;;;;19.00;99.90;;;;;;5023299;28;20041;-73
2022/07/03 06:07:59;;;;;;;0.25;0.25;;;19.00;99.90;;;;;;5032909;28;20007;-74
2022/07/03 06:10:26;;;;;;;0.20;0.20;;;19.10;99.90;;;;;;5027859;28;20042;-75
2022/07/03 06:12:52;;;;;;;0.20;0.20;;;19.10;99.90;;;;;;5029363;28;20044;-73
2022/07/03 06:15:17;;;;;;;0.50;0.50;;;19.30;99.90;;;;;;5026487;28;20125;-74
2022/07/03 06:17:46;;;;;;;;;;;19.50;99.90;;;;;;5016347;28;20049;-75
2022/07/03 06:20:12;;;;;;;0.35;0.35;;;19.70;99.90;;;;;;5013958;28;20337;-74
2022/07/03 06:22:38;;;;;;;0.90;0.63;;;19.90;99.90;;;;;;5030376;28;20610;-73
2022/07/03 06:25:05;;;;;;;0.73;0.65;;;20.00;99.90;;;;;;5030805;28;20060;-75
2022/07/03 06:27:31;;;;;;;0.40;0.40;;;19.80;99.90;;;;;;5029334;28;20073;-74
2022/07/03 06:29:56;;;;;;;0.20;0.20;;;19.70;99.90;;;;;;5030916;28;20092;-73
2022/07/03 06:32:22;;;;;;;;;;;19.60;99.90;;;;;;5024701;28;20057;-74
2022/07/03 06:34:49;;;;;;;0.30;0.30;;;19.60;99.90;;;;;;5025855;28;19968;-75
2022/07/03 06:37:15;;;;;;;0.20;0.20;;;19.60;99.90;;;;;;5029814;28;20061;-75
2022/07/03 06:39:40;;;;;;;0.77;0.75;;;19.50;99.90;;;;;;5029591;28;20052;-73
2022/07/03 06:42:06;;;;;;;0.40;0.40;;;19.50;99.90;;;;;;5030141;28;20037;-74
2022/07/03 06:44:32;;;;;;;;;;;19.40;99.90;;;;;;5027316;28;20096;-74
2022/07/03 06:46:58;;;;;;;0.32;0.32;;;19.50;99.90;;;;;;5021618;28;20364;-74
2022/07/03 06:49:24;;;;;;;;;;;19.70;99.90;;;;;;5027155;28;20391;-73
2022/07/03 06:51:50;;;;;;;0.30;0.30;;;19.90;99.90;;;;;;5022591;28;19924;-73
2022/07/03 06:54:16;;;;;;;0.30;0.30;;;20.00;99.90;;;;;;5025304;28;20597;-73
2022/07/03 06:56:45;;;;;;;0.10;0.10;;;20.00;99.90;;;;;;5020439;28;20072;-73
2022/07/03 06:59:10;;;;;;;0.40;0.40;;;20.00;99.90;;;;;;5026943;28;20095;-73
2022/07/03 07:01:36;;;;;;;0.30;0.30;;;20.00;99.90;;;;;;5023869;28;20053;-74
2022/07/03 07:04:02;;;;;;;0.38;0.38;;;19.90;99.90;;;;;;5031074;28;20487;-73
2022/07/03 07:06:28;;;;;;;0.30;0.30;;;19.90;99.90;;;;;;5013512;28;20045;-73
2022/07/03 07:08:54;;;;;;;0.30;0.30;;;19.80;99.90;;;;;;5025750;28;20042;-73
2022/07/03 07:11:20;;;;;;;0.20;0.20;;;19.70;99.90;;;;;;5011146;28;20392;-74
2022/07/03 07:13:45;;;;;;;;;;;19.70;99.90;;;;;;5027569;28;20124;-71
2022/07/03 07:16:11;;;;;;;0.30;0.30;;;19.60;99.90;;;;;;5030126;28;19932;-72
2022/07/03 07:18:39;;;;;;;;;;;19.70;99.90;;;;;;5034034;28;20048;-72
2022/07/03 07:21:05;;;;;;;0.15;0.15;;;19.80;99.90;;;;;;5037105;28;20313;-72
2022/07/03 07:23:31;;;;;;;0.28;0.28;;;20.00;99.90;;;;;;5028056;28;20140;-74
2022/07/03 07:25:56;;;;;;;;;;;20.30;99.90;;;;;;5013388;28;20084;-72
2022/07/03 07:28:22;;;;;;;0.82;0.82;;;20.50;99.90;;;;;;5009984;28;19917;-72
2022/07/03 07:30:48;;;;;;;0.20;0.20;;;20.50;99.90;;;;;;4993480;28;20049;-72
2022/07/03 07:33:14;;;;;;;0.40;0.40;;;20.50;99.90;;;;;;5024065;28;20052;-72
2022/07/03 07:35:39;;;;;;;;;;;20.40;99.90;;;;;;5023579;28;20045;-74
2022/07/03 07:38:05;;;;;;;0.40;0.40;;;20.20;99.90;;;;;;5027071;28;19992;-71
2022/07/03 07:40:30;;;;;;;0.38;0.38;;;20.00;99.90;;;;;;5024821;28;20049;-75
2022/07/03 07:42:56;;;;;;;;;;;19.90;99.90;;;;;;5028245;28;20042;-72
2022/07/03 07:45:22;;;;;;;0.25;0.25;;;19.90;99.90;;;;;;5032140;28;19921;-73
2022/07/03 07:47:47;;;;;;;;;;;20.00;99.90;;;;;;5022161;28;20427;-71
2022/07/03 07:50:14;;;;;;;0.30;0.30;;;20.10;99.90;;;;;;5020403;28;19921;-74
2022/07/03 07:52:40;;;;;;;0.30;0.30;;;20.20;99.90;;;;;;5024171;28;20096;-73
2022/07/03 07:55:07;;;;;;;0.38;0.38;;;20.20;99.90;;;;;;5016257;28;20402;-71
2022/07/03 07:57:37;;;;;;;0.30;0.30;;;20.20;99.90;;;;;;5021921;28;20050;-72
2022/07/03 08:00:11;;;;;;;0.20;0.20;;;20.10;99.90;;;;;;5020983;28;20087;-73
2022/07/03 08:05:37;;;;;;;0.20;0.20;;;20.30;99.90;;;;;;5015166;28;20057;-74
2022/07/03 08:08:09;;;;;;;0.20;0.20;;;20.40;99.90;;;;;;5023219;28;20046;-71
2022/07/03 08:10:41;;;;;;;0.10;0.10;;;20.40;99.90;;;;;;5003334;28;20132;-74
2022/07/03 08:13:07;;;;;;;0.20;0.20;;;20.50;99.90;;;;;;5034879;28;20052;-73
2022/07/03 08:15:34;;;;;;;0.60;0.60;;;20.50;99.90;;;;;;5034666;28;20381;-72
2022/07/03 08:17:59;;;;;;;0.28;0.28;;;20.60;99.90;;;;;;5030331;28;20046;-74
2022/07/03 08:20:26;;;;;;;0.30;0.30;;;20.60;99.90;;;;;;5014380;28;20047;-74
2022/07/03 08:22:52;;;;;;;0.35;0.35;;;20.60;99.90;;;;;;5032640;28;20079;-72
2022/07/03 08:25:18;;;;;;;0.35;0.35;;;20.70;99.90;;;;;;5030100;28;20045;-73
2022/07/03 08:27:43;;;;;;;0.38;0.38;;;20.70;99.90;;;;;;5033948;28;20037;-72
2022/07/03 08:30:09;;;;;;;0.40;0.40;;;20.70;99.90;;;;;;5033130;28;20045;-73
2022/07/03 08:32:35;;;;;;;0.30;0.30;;;20.80;99.90;;;;;;5032523;28;20045;-71
2022/07/03 08:35:01;;;;;;;;;;;20.90;99.90;;;;;;5014718;28;20047;-71
2022/07/03 08:37:27;;;;;;;0.30;0.30;;;21.00;99.90;;;;;;5022463;28;19917;-71
2022/07/03 08:39:52;;;;;;;0.40;0.40;;;21.10;99.90;;;;;;5016292;28;20037;-74
2022/07/03 08:42:19;;;;;;;0.30;0.30;;;21.10;99.90;;;;;;5016035;28;20137;-73
2022/07/03 08:44:46;;;;;;;0.30;0.30;;;21.10;99.90;;;;;;5015733;28;20160;-74
2022/07/03 08:47:13;;;;;;;0.45;0.40;;;21.30;99.90;;;;;;5034279;28;20056;-73
2022/07/03 08:49:41;;;;;;;0.40;0.40;;;21.40;99.90;;;;;;5031914;28;20064;-74
2022/07/03 08:52:07;;;;;;;0.30;0.30;;;21.40;99.90;;;;;;5016157;28;20045;-73
2022/07/03 08:54:33;;;;;;;0.20;0.20;;;21.50;99.90;;;;;;5002190;28;20053;-73
2022/07/03 08:57:02;;;;;;;0.20;0.20;;;21.60;99.90;;;;;;5015890;28;20057;-74
2022/07/03 08:59:35;;;;;;;0.30;0.30;;;21.60;99.90;;;;;;5020948;28;20596;-73
2022/07/03 09:02:04;;;;;;;0.20;0.20;;;21.70;99.90;;;;;;5031746;28;20041;-78
2022/07/03 09:04:35;;;;;;;0.20;0.20;;;21.80;99.90;;;;;;5033148;28;20525;-78
2022/07/03 09:07:02;;;;;;;0.45;0.45;;;21.90;99.90;;;;;;5015833;28;20049;-79
2022/07/03 09:09:33;;;;;;;0.30;0.30;;;21.90;99.90;;;;;;5003882;28;20041;-78
2022/07/03 09:11:59;;;;;;;0.40;0.40;;;22.00;99.90;;;;;;5035058;28;20037;-76
2022/07/03 09:14:24;;;;;;;0.20;0.20;;;21.90;99.90;;;;;;5033709;28;20049;-77
2022/07/03 09:16:51;;;;;;;0.20;0.20;;;22.00;99.90;;;;;;4999843;28;20037;-77
2022/07/03 09:19:43;;;;;;;0.30;0.30;;;22.10;99.90;;;;;;5014776;28;20045;-77
2022/07/03 09:22:30;;;;;;;0.20;0.20;;;22.20;99.90;;;;;;5026595;28;20045;-78
2022/07/03 09:25:09;;;;;;;0.63;0.63;;;22.30;99.70;;;;;;5030059;28;20043;-78
2022/07/03 09:27:36;;;;;;;0.30;0.30;;;22.20;99.90;;;;;;5032241;28;20052;-77
2022/07/03 09:30:02;;;;;;;0.20;0.20;;;22.20;99.90;;;;;;5015858;28;20041;-77
2022/07/03 09:32:37;;;;;;;0.20;0.20;;;22.20;99.90;;;;;;5019851;28;20045;-79
2022/07/03 09:35:23;;;;;;;0.20;0.20;;;22.20;99.90;;;;;;5023007;28;20041;-78
2022/07/03 09:37:53;;;;;;;0.10;0.10;;;22.30;99.10;;;;;;5031517;28;20060;-76
2022/07/03 09:40:19;;;;;;;0.35;0.35;;;22.30;98.90;;;;;;5031340;28;20045;-77
2022/07/03 09:43:06;;;;;;;0.15;0.15;;;22.50;98.30;;;;;;5017757;28;20491;-76
2022/07/03 09:45:53;;;;;;;0.30;0.30;;;22.60;99.10;;;;;;5015028;28;20046;-76
2022/07/03 09:48:24;;;;;;;;;;;22.70;96.90;;;;;;5024662;28;20048;-75
2022/07/03 09:51:26;;;;;;;0.30;0.30;;;22.70;95.90;;;;;;5010241;28;20413;-75
2022/07/03 09:54:02;;;;;;;0.25;0.25;;;22.60;96.00;;;;;;5030830;28;20057;-76
2022/07/03 09:56:38;;;;;;;0.20;0.20;;;22.70;97.70;;;;;;5013517;28;20053;-75
2022/07/03 09:59:07;;;;;;;0.30;0.30;;;23.00;96.90;;;;;;5001466;28;20053;-76
2022/07/03 10:01:35;;;;;;;0.20;0.20;;;23.10;97.10;;;;;;5012225;28;20547;-76
2022/07/03 10:04:22;;;;;;;0.20;0.20;;;23.30;98.30;;;;;;4993675;28;20029;-77
2022/07/03 10:06:58;;;;;;;0.57;0.57;;;23.40;97.00;;;;;;5017468;28;20049;-75
2022/07/03 10:09:25;;;;;;;0.30;0.30;;;23.10;95.80;;;;;;5026971;28;20132;-75
2022/07/03 10:11:53;;;;;;;0.30;0.30;;;22.90;96.60;;;;;;5009660;28;20049;-78
2022/07/03 10:14:21;;;;;;;0.20;0.20;;;22.90;96.60;;;;;;5034558;28;20052;-78
2022/07/03 10:22:57;;;;;;;0.30;0.30;;;23.10;96.60;;;;;;4996928;28;20058;-78
2022/07/03 10:25:23;;;;;;;0.30;0.30;;;23.50;97.60;;;;;;4995593;28;20072;-76
2022/07/03 10:27:51;;;;;;;0.30;0.30;;;23.80;97.00;;;;;;4988596;28;20073;-77
2022/07/03 10:30:21;;;;;;;0.20;0.20;;;23.80;97.20;;;;;;5003242;28;20099;-76
2022/07/03 10:32:48;;;;;;;0.40;0.40;;;23.70;96.60;;;;;;4999100;28;20050;-72
2022/07/03 10:35:19;;;;;;;0.30;0.30;;;23.40;96.80;;;;;;5024826;28;20116;-77
2022/07/03 10:38:02;;;;;;;0.45;0.45;;;23.10;96.80;;;;;;5012247;28;20080;-79
2022/07/03 10:46:32;;;;;;;0.20;0.20;;;22.90;98.70;;;;;;5011317;28;20438;-73
2022/07/03 10:49:08;;;;;;;0.20;0.20;;;23.00;97.60;;;;;;5017838;28;20108;-73
2022/07/03 10:52:00;;;;;;;0.28;0.28;;;22.80;97.30;;;;;;5010119;28;20120;-79
2022/07/03 10:54:33;;;;;;;0.30;0.30;;;22.90;96.70;;;;;;5010202;28;20081;-76
2022/07/03 10:57:00;;;;;;;0.20;0.20;;;22.90;98.40;;;;;;5022179;28;20056;-77
2022/07/03 10:59:31;;;;;;;0.30;0.30;;;23.00;98.30;;;;;;4997049;28;20046;-78
2022/07/03 11:02:32;;;;;;;0.20;0.20;;;23.10;97.90;;;;;;5001596;28;20045;-73
2022/07/03 11:05:01;;;;;;;0.73;0.73;;;23.20;98.30;;;;;;4982137;28;20711;-75
2022/07/03 11:07:53;;;;;;;0.20;0.20;;;23.50;96.70;;;;;;5011714;28;20057;-78
2022/07/03 11:10:18;;;;;;;1.17;1.17;;;23.80;96.70;;;;;;5001971;28;20072;-75
2022/07/03 11:13:01;;;;;;;0.35;0.35;;;24.10;96.50;;;;;;4995028;28;20065;-72
2022/07/03 11:15:39;;;;;;;0.20;0.20;;;24.50;96.50;;;;;;5015565;28;20455;-71
2022/07/03 11:18:27;;;;;;;0.28;0.28;;;25.10;96.60;;;;;;5003389;28;20494;-73
2022/07/03 11:20:52;;;;;;;0.17;0.17;;;25.50;94.00;;;;;;5013856;28;20042;-75
2022/07/03 11:23:28;;;;;;;0.20;0.20;;;25.40;91.40;;;;;;5012916;28;20558;-76
2022/07/03 11:26:09;;;;;;;0.20;0.20;;;25.20;92.50;;;;;;5010013;28;20088;-72
2022/07/03 11:28:35;;;;;;;0.20;0.20;;;25.10;92.70;;;;;;5011280;28;20073;-76
2022/07/03 11:31:22;;;;;;;0.17;0.17;;;25.10;91.20;;;;;;5020803;28;20554;-75
2022/07/03 11:34:08;;;;;;;0.20;0.20;;;24.90;91.60;;;;;;5008522;28;20042;-75
2022/07/03 11:36:34;;;;;;;0.10;0.10;;;24.60;92.00;;;;;;5005584;28;20069;-76
2022/07/03 11:39:00;;;;;;;0.20;0.20;;;24.40;92.70;;;;;;5012194;28;20046;-76
2022/07/03 11:41:34;;;;;;;0.38;0.38;;;24.50;93.20;;;;;;5006091;28;20413;-73
2022/07/03 11:44:06;;;;;;;0.30;0.30;;;24.30;92.10;;;;;;5024710;28;20033;-73
2022/07/03 11:46:37;;;;;;;2.33;0.32;;;24.00;92.60;;;;;;5016572;28;20053;-72
2022/07/03 11:49:10;;;;;;;0.20;0.20;;;23.70;93.20;;;;;;5003884;28;20083;-72
2022/07/03 11:51:38;;;;;;;0.50;0.50;;;23.60;93.70;;;;;;5020603;28;20572;-74
2022/07/03 11:54:05;;;;;;;0.10;0.10;;;23.60;93.10;;;;;;5025568;28;20370;-70
2022/07/03 11:56:31;;;;;;;0.30;0.30;;;23.50;95.70;;;;;;5013777;28;20431;-70
2022/07/03 11:59:02;;;;;;;0.30;0.30;;;23.50;99.90;;;;;;5023962;28;20041;-73
2022/07/03 12:01:31;;;;;;;0.25;0.25;;;23.30;99.90;;;;;;5019865;28;20046;-74
2022/07/03 12:04:22;;;;;;;0.73;0.73;;;23.20;99.90;;;;;;5016253;28;20064;-73
2022/07/03 12:06:58;;;;;;;0.25;0.25;;;23.20;99.90;;;;;;5016674;28;20054;-73
2022/07/03 12:09:26;;;;;;;0.20;0.20;;;23.50;99.90;;;;;;5007225;28;20403;-75
2022/07/03 12:12:11;;;;;;;0.30;0.20;;;23.60;99.90;;;;;;5013153;28;20045;-74
2022/07/03 12:14:43;;;;;;;0.38;0.38;;;23.50;99.90;;;;;;5014323;28;20037;-74
2022/07/03 12:17:11;;;;;;;0.20;0.20;;;23.40;99.90;;;;;;5010947;28;20050;-73
2022/07/03 12:19:38;;;;;;;0.28;0.28;;;23.10;99.90;;;;;;5016366;28;20049;-73
2022/07/03 12:22:05;;;;;;;0.20;0.20;;;23.00;99.90;;;;;;4991651;28;20133;-78
2022/07/03 12:24:33;;;;;;;2.55;0.40;;;22.90;99.90;;;;;;5020845;28;20065;-78
2022/07/03 12:27:02;;;;;;;0.30;0.30;;;23.20;99.90;;;;;;5019557;28;20053;-78
2022/07/03 12:29:28;;;;;;;0.20;0.20;;;23.50;99.90;;;;;;5020999;28;20072;-74
2022/07/03 12:31:54;;;;;;;0.20;0.20;;;23.90;99.40;;;;;;5013145;28;20046;-71
2022/07/03 12:34:20;;;;;;;0.55;0.55;;;24.30;99.20;;;;;;4993486;28;20072;-73
2022/07/03 12:36:59;;;;;;;1.10;0.80;;;24.50;97.50;;;;;;4999612;28;20141;-73
2022/07/03 12:39:46;;;;;;;0.17;0.17;;;24.40;97.20;;;;;;5014333;28;20046;-72
2022/07/03 12:42:15;;;;;;;;;;;24.50;96.80;;;;;;5015064;28;20117;-72
2022/07/03 12:44:41;;;;;;;0.55;0.55;;;24.70;96.40;;;;;;5014329;28;19921;-74
2022/07/03 12:47:07;;;;;;;0.32;0.32;;;25.10;97.30;;;;;;4993158;28;20080;-71
2022/07/03 12:49:33;;;;;;;0.20;0.20;;;25.30;97.10;;;;;;5021294;28;20056;-72
2022/07/03 12:51:58;;;;;;;0.20;0.20;;;25.30;96.50;;;;;;5007143;28;20053;-72
2022/07/03 12:54:37;;;;;;;0.10;0.10;;;25.40;96.30;;;;;;5014126;28;20196;-73
2022/07/03 13:00:21;;;;;;;0.20;0.20;;;25.20;97.50;;;;;;5007880;28;20050;-74
2022/07/03 13:02:48;;;;;;;0.40;0.40;;;24.80;98.80;;;;;;5014630;28;20175;-73
2022/07/03 13:05:24;;;;;;;0.20;0.20;;;24.40;99.90;;;;;;5016490;28;20049;-75
2022/07/03 13:07:51;;;;;;;0.28;0.28;;;24.20;99.90;;;;;;4992812;28;20049;-78
2022/07/03 13:10:20;;;;;;;1.10;0.52;;;24.40;99.90;;;;;;5007405;28;20053;-71
2022/07/03 13:12:56;;;;;;;0.20;0.20;;;24.70;99.90;;;;;;5016245;28;20050;-72
2022/07/03 13:15:29;;;;;;;0.15;0.15;;;24.80;99.90;;;;;;5012059;28;20054;-73
2022/07/03 13:17:55;;;;;;;0.28;0.25;;;24.60;99.90;;;;;;5022797;28;20433;-72
2022/07/03 13:20:28;;;;;;;0.30;0.30;;;24.10;99.90;;;;;;5005410;28;20045;-72
2022/07/03 13:22:56;;;;;;;0.40;0.40;;;23.80;99.90;;;;;;4980546;28;20038;-73
2022/07/03 13:25:23;;;;;;;0.22;0.22;;;23.60;99.90;;;;;;5012804;28;20707;-72
2022/07/03 13:27:48;;;;;;;0.20;0.20;;;23.70;99.90;;;;;;5014536;28;20041;-72
2022/07/03 13:30:15;;;;;;;0.68;0.30;;;23.90;99.90;;;;;;5008839;28;20111;-74
2022/07/03 13:32:42;;;;;;;0.70;0.50;;;23.90;99.90;;;;;;5012600;28;20049;-71
2022/07/03 13:35:08;;;;;;;0.52;0.52;;;23.70;99.90;;;;;;5006449;28;20046;-75